createdAt,value
2016-02-29T00:00:49.949Z,1
2016-02-29T00:04:01.256Z,1
2016-02-29T00:07:17.420Z,1
2016-02-29T00:10:18.054Z,1
2016-02-29T00:13:29.312Z,1
2016-02-29T00:16:38.461Z,1
2016-02-29T00:19:47.360Z,1
2016-02-29T00:22:58.917Z,0
2016-02-29T00:26:16.206Z,0
2016-02-29T00:29:16.652Z,0
2016-02-29T00:32:28.478Z,0
2016-02-29T00:35:39.986Z,0
2016-02-29T00:38:51.728Z,0
2016-02-29T00:42:00.380Z,0
2016-02-29T00:45:18.153Z,0
2016-02-29T00:48:18.927Z,0
2016-02-29T00:51:27.951Z,0
2016-02-29T00:54:36.787Z,0
2016-02-29T00:57:45.685Z,0
2016-02-29T01:00:54.303Z,0
2016-02-29T01:04:11.845Z,0
2016-02-29T01:07:18.259Z,0
2016-02-29T01:10:18.735Z,0
2016-02-29T01:13:28.713Z,0
2016-02-29T01:16:40.330Z,0
2016-02-29T01:19:52.104Z,0
2016-02-29T01:23:09.849Z,0
2016-02-29T01:26:16.482Z,0
2016-02-29T01:29:17.036Z,0
2016-02-29T01:32:28.670Z,0
2016-02-29T01:35:40.209Z,0
2016-02-29T01:38:51.373Z,0
2016-02-29T01:42:01.025Z,0
2016-02-29T01:45:17.174Z,0
2016-02-29T01:48:17.619Z,0
2016-02-29T01:51:29.252Z,0
2016-02-29T01:54:40.792Z,0
2016-02-29T01:57:49.707Z,0
2016-02-29T02:00:58.587Z,0
2016-02-29T02:04:16.210Z,0
2016-02-29T02:07:16.834Z,0
2016-02-29T02:10:27.045Z,0
2016-02-29T02:13:38.938Z,0
2016-02-29T02:16:48.723Z,0
2016-02-29T02:20:00.447Z,0
2016-02-29T02:23:18.364Z,0
2016-02-29T02:26:19.278Z,0
2016-02-29T02:29:30.974Z,0
2016-02-29T02:32:42.654Z,0
2016-02-29T02:35:54.630Z,0
2016-02-29T02:39:10.563Z,0
2016-02-29T02:42:17.446Z,0
2016-02-29T02:45:18.407Z,0
2016-02-29T02:48:28.446Z,0
2016-02-29T02:51:38.439Z,0
2016-02-29T02:54:48.228Z,0
2016-02-29T02:57:56.674Z,0
2016-02-29T03:01:14.466Z,0
2016-02-29T03:04:15.897Z,0
2016-02-29T03:07:27.639Z,0
2016-02-29T03:10:39.381Z,0
2016-02-29T03:13:51.468Z,0
2016-02-29T03:17:01.647Z,0
2016-02-29T03:20:13.470Z,0
2016-02-29T03:23:25.198Z,0
2016-02-29T03:26:33.986Z,0
2016-02-29T03:29:45.979Z,0
2016-02-29T03:32:57.690Z,0
2016-02-29T03:36:15.889Z,0
2016-02-29T03:39:16.646Z,0
2016-02-29T03:42:25.685Z,0
2016-02-29T03:45:37.303Z,0
2016-02-29T03:48:46.358Z,0
2016-02-29T03:51:58.288Z,0
2016-02-29T03:55:16.346Z,0
2016-02-29T03:58:17.292Z,0
2016-02-29T04:01:29.159Z,0
2016-02-29T04:04:37.683Z,0
2016-02-29T04:07:49.519Z,0
2016-02-29T04:11:01.464Z,0
2016-02-29T04:14:19.210Z,0
2016-02-29T04:17:19.904Z,0
2016-02-29T04:20:31.819Z,0
2016-02-29T04:23:43.593Z,0
2016-02-29T04:26:55.476Z,0
2016-02-29T04:30:10.110Z,0
2016-02-29T04:33:16.855Z,0
2016-02-29T04:36:17.613Z,0
2016-02-29T04:39:29.121Z,0
2016-02-29T04:42:38.082Z,0
2016-02-29T04:45:46.762Z,0
2016-02-29T04:48:58.537Z,0
2016-02-29T04:52:13.250Z,0
2016-02-29T04:55:13.930Z,0
2016-02-29T04:58:25.735Z,0
2016-02-29T05:01:34.666Z,0
2016-02-29T05:04:46.845Z,0
2016-02-29T05:07:56.356Z,0
2016-02-29T05:11:11.239Z,0
2016-02-29T05:14:17.985Z,0
2016-02-29T05:17:18.711Z,0
2016-02-29T05:20:28.969Z,0
2016-02-29T05:23:40.805Z,0
2016-02-29T05:26:52.578Z,1
2016-02-29T05:30:10.477Z,2
2016-02-29T05:33:17.427Z,4
2016-02-29T05:36:18.168Z,7
2016-02-29T05:39:29.802Z,10
2016-02-29T05:42:41.778Z,16
2016-02-29T05:45:53.787Z,26
2016-02-29T05:49:02.654Z,38
2016-02-29T05:52:14.100Z,51
2016-02-29T05:55:23.750Z,69
2016-02-29T05:58:35.623Z,89
2016-02-29T06:01:47.506Z,111
2016-02-29T06:04:56.639Z,134
2016-02-29T06:08:11.977Z,156
2016-02-29T06:11:19.050Z,186
2016-02-29T06:14:20.088Z,229
2016-02-29T06:17:31.964Z,265
2016-02-29T06:20:43.707Z,322
2016-02-29T06:23:55.637Z,379
2016-02-29T06:27:11.598Z,408
2016-02-29T06:30:18.703Z,450
2016-02-29T06:33:19.585Z,507
2016-02-29T06:36:31.656Z,578
2016-02-29T06:39:43.008Z,684
2016-02-29T06:42:54.953Z,702
2016-02-29T06:46:03.274Z,736
2016-02-29T06:49:14.204Z,812
2016-02-29T06:52:22.902Z,889
2016-02-29T06:55:34.832Z,872
2016-02-29T06:58:46.871Z,1076
2016-02-29T07:01:58.926Z,1238
2016-02-29T07:05:17.059Z,1238
2016-02-29T07:08:17.989Z,1212
2016-02-29T07:11:30.078Z,1387
2016-02-29T07:14:41.321Z,1481
2016-02-29T07:17:50.860Z,1419
2016-02-29T07:21:03.243Z,1434
2016-02-29T07:24:14.766Z,1569
2016-02-29T07:27:24.199Z,1641
2016-02-29T07:30:33.364Z,1624
2016-02-29T07:33:45.168Z,1818
2016-02-29T07:36:56.020Z,1885
2016-02-29T07:40:14.217Z,2064
2016-02-29T07:43:15.224Z,2328
2016-02-29T07:46:25.547Z,2489
2016-02-29T07:49:37.102Z,2651
2016-02-29T07:52:46.532Z,2734
2016-02-29T07:55:56.259Z,2550
2016-02-29T07:59:10.924Z,2633
2016-02-29T08:02:17.775Z,2890
2016-02-29T08:05:18.939Z,2804
2016-02-29T08:08:30.216Z,2754
2016-02-29T08:11:42.443Z,3106
2016-02-29T08:14:54.747Z,3136
2016-02-29T08:18:12.474Z,3091
2016-02-29T08:21:13.576Z,3008
2016-02-29T08:24:23.135Z,3095
2016-02-29T08:27:35.518Z,3238
2016-02-29T08:30:47.540Z,3307
2016-02-29T08:33:59.127Z,3578
2016-02-29T08:37:15.337Z,3568
2016-02-29T08:40:16.425Z,3641
2016-02-29T08:43:28.497Z,3685
2016-02-29T08:46:40.709Z,3700
2016-02-29T08:49:52.888Z,3747
2016-02-29T08:53:10.100Z,3803
2016-02-29T08:56:17.218Z,3886
2016-02-29T08:59:18.287Z,4075
2016-02-29T09:02:30.471Z,4185
2016-02-29T09:05:42.295Z,4365
2016-02-29T09:08:52.267Z,4684
2016-02-29T09:12:10.212Z,4934
2016-02-29T09:15:17.346Z,5228
2016-02-29T09:18:24.525Z,5327
2016-02-29T09:21:25.787Z,5245
2016-02-29T09:24:35.106Z,5234
2016-02-29T09:27:47.349Z,5210
2016-02-29T09:30:59.388Z,4942
2016-02-29T09:34:15.397Z,4878
2016-02-29T09:37:16.686Z,4831
2016-02-29T09:40:29.072Z,4797
2016-02-29T09:43:39.798Z,4660
2016-02-29T09:46:50.479Z,4483
2016-02-29T10:18:38.346Z,5523
2016-02-29T10:21:50.900Z,5872
2016-02-29T10:25:01.314Z,6154
2016-02-29T10:28:19.700Z,6137
2016-02-29T10:31:21.052Z,6295
2016-02-29T10:34:33.169Z,6481
2016-02-29T10:37:45.177Z,6714
2016-02-29T10:40:54.357Z,6751
2016-02-29T10:44:12.615Z,6947
2016-02-29T10:47:13.936Z,7035
2016-02-29T10:50:26.353Z,6981
2016-02-29T10:53:38.798Z,6551
2016-02-29T10:56:47.837Z,6022
2016-02-29T10:59:57.736Z,5821
2016-02-29T11:03:16.653Z,5763
2016-02-29T11:06:18.819Z,5815
2016-02-29T11:09:30.639Z,5488
2016-02-29T11:12:42.857Z,5318
2016-02-29T11:15:53.557Z,5254
2016-02-29T11:19:11.948Z,5148
2016-02-29T11:22:19.190Z,4748
2016-02-29T11:25:20.478Z,4995
2016-02-29T11:28:32.671Z,5007
2016-02-29T11:31:44.851Z,4822
2016-02-29T11:34:54.078Z,4544
2016-02-29T11:38:11.320Z,4475
2016-02-29T11:41:18.657Z,4528
2016-02-29T11:44:19.930Z,4614
2016-02-29T11:47:29.535Z,4656
2016-02-29T11:50:40.605Z,4600
2016-02-29T11:53:52.957Z,4620
2016-02-29T11:57:01.840Z,4779
2016-02-29T12:00:18.239Z,5099
2016-02-29T12:03:19.497Z,5183
2016-02-29T12:06:30.883Z,5085
2016-02-29T12:09:42.953Z,5027
2016-02-29T12:12:53.993Z,5032
2016-02-29T12:16:02.751Z,5026
2016-02-29T12:19:19.087Z,5159
2016-02-29T12:22:20.392Z,5084
2016-02-29T12:25:31.965Z,5059
2016-02-29T12:28:43.176Z,5324
2016-02-29T12:31:55.512Z,5608
2016-02-29T12:35:10.770Z,5766
2016-02-29T12:38:18.216Z,5926
2016-02-29T12:41:19.397Z,6169
2016-02-29T12:44:31.672Z,6346
2016-02-29T12:47:44.040Z,6207
2016-02-29T12:50:56.470Z,5821
2016-02-29T12:54:13.306Z,5326
2016-02-29T12:57:14.579Z,4964
2016-02-29T13:00:25.306Z,4796
2016-02-29T13:03:35.208Z,4673
2016-02-29T13:06:47.440Z,4558
2016-02-29T13:09:59.636Z,4473
2016-02-29T13:13:16.114Z,4443
2016-02-29T13:16:17.261Z,4424
2016-02-29T13:19:27.645Z,4361
2016-02-29T13:22:39.515Z,4195
2016-02-29T13:25:50.274Z,4160
2016-02-29T13:28:59.077Z,4088
2016-02-29T13:32:17.008Z,4092
2016-02-29T13:35:18.251Z,4276
2016-02-29T13:38:30.493Z,4518
2016-02-29T13:41:42.894Z,4548
2016-02-29T13:44:55.278Z,4440
2016-02-29T13:48:13.582Z,4324
2016-02-29T13:51:14.872Z,4212
2016-02-29T13:54:26.004Z,4112
2016-02-29T13:57:38.750Z,4182
2016-02-29T14:00:48.601Z,4314
2016-02-29T14:04:01.016Z,4305
2016-02-29T14:07:19.054Z,4151
2016-02-29T14:10:20.329Z,3954
2016-02-29T14:13:32.242Z,3745
2016-02-29T14:16:44.473Z,3516
2016-02-29T14:19:56.825Z,3414
2016-02-29T14:23:13.333Z,3328
2016-02-29T14:26:14.527Z,3332
2016-02-29T14:29:26.849Z,3325
2016-02-29T14:32:39.188Z,3330
2016-02-29T14:35:51.461Z,3264
2016-02-29T14:39:03.813Z,3172
2016-02-29T14:42:15.618Z,2991
2016-02-29T14:45:27.876Z,2877
2016-02-29T14:48:39.793Z,2723
2016-02-29T14:51:51.942Z,2614
2016-02-29T14:55:04.121Z,2458
2016-02-29T14:58:16.552Z,2372
2016-02-29T15:01:27.107Z,2239
2016-02-29T15:04:37.008Z,2167
2016-02-29T15:07:49.219Z,2062
2016-02-29T15:11:01.384Z,1937
2016-02-29T15:14:17.001Z,1816
2016-02-29T15:17:18.165Z,1737
2016-02-29T15:20:30.408Z,1680
2016-02-29T15:23:42.497Z,1629
2016-02-29T15:26:53.879Z,1586
2016-02-29T15:30:03.794Z,1514
2016-02-29T15:33:15.693Z,1459
2016-02-29T15:36:25.919Z,1381
2016-02-29T15:39:37.943Z,1296
2016-02-29T15:42:49.938Z,1223
2016-02-29T15:45:59.275Z,1169
2016-02-29T15:49:17.283Z,1081
2016-02-29T15:52:18.197Z,1009
2016-02-29T15:55:30.064Z,937
2016-02-29T15:58:41.856Z,866
2016-02-29T16:01:51.661Z,802
2016-02-29T16:05:03.654Z,731
2016-02-29T16:08:15.319Z,678
2016-02-29T16:11:27.328Z,609
2016-02-29T16:14:39.319Z,546
2016-02-29T16:17:51.252Z,487
2016-02-29T16:21:02.980Z,426
2016-02-29T16:24:19.003Z,363
2016-02-29T16:27:19.948Z,310
2016-02-29T16:30:30.112Z,263
2016-02-29T16:33:40.980Z,219
2016-02-29T16:36:51.897Z,178
2016-02-29T16:40:03.828Z,141
2016-02-29T16:43:15.569Z,107
2016-02-29T16:46:26.375Z,74
2016-02-29T16:49:38.305Z,49
2016-02-29T16:52:48.690Z,35
2016-02-29T16:56:00.854Z,23
2016-02-29T16:59:18.854Z,15
2016-02-29T17:02:19.988Z,9
2016-02-29T17:05:28.855Z,6
2016-02-29T17:08:40.785Z,4
2016-02-29T17:11:49.968Z,2
2016-02-29T17:14:59.383Z,2
2016-02-29T17:18:17.452Z,1
2016-02-29T17:21:18.446Z,1
2016-02-29T17:24:28.735Z,0
2016-02-29T17:27:38.930Z,1
2016-02-29T17:30:50.879Z,1
2016-02-29T17:34:03.027Z,1
2016-02-29T17:37:15.114Z,1
2016-02-29T17:40:24.590Z,1
2016-02-29T17:43:34.552Z,1
2016-02-29T17:46:46.828Z,1
2016-02-29T17:49:58.773Z,1
2016-02-29T17:53:15.329Z,1
2016-02-29T17:56:16.367Z,1
2016-02-29T17:59:25.220Z,1
2016-02-29T18:02:34.149Z,1
2016-02-29T18:05:43.907Z,1
2016-02-29T18:08:55.840Z,1
2016-02-29T18:12:04.363Z,1
2016-02-29T18:15:16.356Z,1
2016-02-29T18:18:28.270Z,1
2016-02-29T18:21:39.857Z,1
2016-02-29T18:24:51.774Z,1
2016-02-29T18:28:03.734Z,1
2016-02-29T18:31:15.556Z,1
2016-02-29T18:34:27.781Z,1
2016-02-29T18:37:40.806Z,1
2016-02-29T18:40:50.551Z,1
2016-02-29T18:44:02.450Z,1
2016-02-29T18:47:20.630Z,1
2016-02-29T18:50:21.591Z,0
2016-02-29T18:53:33.599Z,0
2016-02-29T18:56:45.685Z,1
2016-02-29T18:59:54.274Z,1
2016-02-29T19:03:04.532Z,1
2016-02-29T19:06:16.228Z,1
2016-02-29T19:09:28.361Z,1
2016-02-29T19:12:39.697Z,1
2016-02-29T19:15:52.020Z,1
2016-02-29T19:19:03.653Z,1
2016-02-29T19:22:20.583Z,1
2016-02-29T19:25:22.044Z,1
2016-02-29T19:28:33.209Z,1
2016-02-29T19:31:44.748Z,1
2016-02-29T19:34:55.118Z,1
2016-02-29T19:38:13.204Z,1
2016-02-29T19:41:20.370Z,1
2016-02-29T19:44:21.314Z,1
2016-02-29T19:47:33.167Z,1
2016-02-29T19:50:43.018Z,1
2016-02-29T19:53:54.935Z,1
2016-02-29T19:57:13.084Z,1
2016-02-29T20:00:20.201Z,1
2016-02-29T20:03:21.334Z,1
2016-02-29T20:06:33.279Z,1
2016-02-29T20:09:45.428Z,1
2016-02-29T20:12:56.349Z,1
2016-02-29T20:16:14.324Z,1
2016-02-29T20:19:15.318Z,1
2016-02-29T20:22:27.230Z,1
2016-02-29T20:25:36.168Z,1
2016-02-29T20:28:47.780Z,1
2016-02-29T20:31:59.913Z,1
2016-02-29T20:35:18.059Z,1
2016-02-29T20:38:19.114Z,1
2016-02-29T20:41:31.029Z,1
2016-02-29T20:44:42.958Z,1
2016-02-29T20:47:54.204Z,1
2016-02-29T20:51:12.258Z,1
2016-02-29T20:54:19.329Z,1
2016-02-29T20:57:20.431Z,1
2016-02-29T21:00:32.658Z,1
2016-02-29T21:03:44.666Z,1
2016-02-29T21:06:54.346Z,1
2016-02-29T21:10:03.981Z,1
2016-02-29T21:13:16.474Z,1
2016-02-29T21:16:28.466Z,1
2016-02-29T21:19:39.896Z,1
2016-02-29T21:22:51.123Z,1
2016-02-29T21:26:03.306Z,1
2016-02-29T21:29:19.626Z,1
2016-02-29T21:32:20.728Z,1
2016-02-29T21:35:32.689Z,1
2016-02-29T21:38:44.198Z,1
2016-02-29T21:41:55.972Z,1
2016-02-29T21:45:14.013Z,1
2016-02-29T21:48:21.115Z,1
2016-02-29T21:51:22.201Z,1
2016-02-29T21:54:34.006Z,1
2016-02-29T21:57:46.045Z,1
2016-02-29T22:00:58.119Z,1
2016-02-29T22:04:14.445Z,1
2016-02-29T22:07:21.527Z,1
2016-02-29T22:10:22.680Z,1
2016-02-29T22:13:33.147Z,1
2016-02-29T22:16:41.877Z,1
2016-02-29T22:19:54.019Z,1
2016-02-29T22:23:05.765Z,1
2016-02-29T22:26:17.594Z,1
2016-02-29T22:29:29.583Z,1
2016-02-29T22:32:39.383Z,1
2016-02-29T22:35:49.252Z,1
2016-02-29T22:38:58.870Z,1
2016-02-29T22:42:16.912Z,1
2016-02-29T22:45:17.998Z,1
2016-02-29T22:48:30.303Z,1
2016-02-29T22:51:42.312Z,1
2016-02-29T22:54:52.194Z,1
2016-02-29T22:58:02.579Z,1
2016-02-29T23:01:18.369Z,1
2016-02-29T23:04:19.471Z,1
2016-02-29T23:07:31.245Z,1
2016-02-29T23:10:43.081Z,1
2016-02-29T23:13:55.026Z,1
2016-02-29T23:17:07.147Z,1
2016-02-29T23:20:19.342Z,1
2016-02-29T23:23:31.397Z,1
2016-02-29T23:26:43.327Z,1
2016-02-29T23:29:55.585Z,1
2016-02-29T23:33:04.580Z,1
2016-02-29T23:36:20.338Z,1
2016-02-29T23:39:21.581Z,0
2016-02-29T23:42:31.683Z,0
2016-02-29T23:45:40.378Z,0
2016-02-29T23:48:51.948Z,0
2016-02-29T23:52:03.300Z,0
2016-02-29T23:55:18.859Z,0
2016-02-29T23:58:19.850Z,0
